LTAL Airport Information

Runway Information
Airport Frequencies
Airport Navaids
Airport Weather Information & NOTAM
ADDS - METARS form results

(0326 UTC 23 August 2019)
Data provider http://aviationweather.gov/metar/data/
 
Forecast for: LTAL (KASTAMONU , TR)
Text: TAF LTAL 230140Z 2303/2312 24008KT 9999 SCT033 BKN100
Forecast period: 0300 to 1200 UTC 23 August 2019
Forecast type: FROM: standard forecast or significant change
Winds: from the WSW (240 degrees) at 9 MPH (8 knots; 4.1 m/s)
Visibility: 6 or more miles 10+ km)
Ceiling: 10000 feet AGL
Clouds: scattered clouds at 3300 feet AGL
broken clouds at 10000 feet AGL
Weather: no significant weather forecast for this period